Observation Tools

Southern live oak Photo courtesy of Sally and Andy Wasowski, Lady Bird Wildflower Center, www.wildflower.org.

Southern live oak (Quercus virginiana)


Also Known As: Virginia live oak
Plant Family: Beech (Fagaceae)
Project BudBurst Plant Group: Evergreen Trees and Shrubs

Identification Hints: There are several smaller evergreen oaks along the coastal plain. Southern live oak is unique in its large size,spreading branches, smooth oblong leather leaves with light colored undersides.The flowers are produced in catkins and the acorns are small and oblong with black tips.

Did you Know? Southern live oak is considered to be one of the "noblest trees in the world and virtually an emblem of the Old South." In many parts of the south, these trees are protected for public enjoyment. The acorns of southern live oaks are an important food source for many birds and mammals. This is a very fast growing tree and is therefore are often planted for erosion control. It also has potential for use in re-vegetating coal mine spoils. Properly cared for, southern live oaks can survive for centuries.


Live Map for Southern live oak

Other years available for viewing:

Below you can view all observations that have been reported in for Southern live oak (If the map below is empty then there have not been any observations reported.)

Use the navigation buttons on the left to zoom in/out and pan around. Click on each place marker to get detail information about that observation.

Leaf/Needles/Stalk = Leaf/Needles/Stalk Flower = Flower Pollen = Pollen Fruiting = Fruiting Color = Color

--Back to Top--

close help window button

The table below displays all the data that has been submitted to Project BudBurst. By default, the data is sorted by the date on which the phenophase occurred. Clicking the up and down arrows next to each column name allows you to sort on any value. If there have been more than 10 observations submitted, you can choose how many to display at a time using the "Show __ entries" control. You can also page through the data using the previous and next buttons at the bottom right of the table.

The Search box allows you to search all of the data. Searching by date, species, phenophase, etc. is easy—just start typing and the table will immediately change to contain only observations that contain your search phrase. Do you want to see only 2012 observations? Just type "2012" in the search box. Only want to see maples? Enter "Acer." You can combine searches, too! Searching for "acer 2012" will narrow your results to only the maples that were observed in 2012 (assuming that any observations exist, of course).

Once you have your results in the order desired, you can use any of the buttons above the search box to copy the results to the clipboard; save them as a text, or spreadsheet; or even print them from your browser!

Observational data for Southern live oak:

help button
Date Contributor Common Name Species Phenophase Latitude Longitude Obs#
Sat Mar 14 00:00:00 GMT 2009 anonymous Southern live oak Quercus virginiana Full Pollen 30.283100000000000 -81.657300000000000 5121
Sat Feb 28 00:00:00 GMT 2009 dtrumbu Southern live oak Quercus virginiana First Leaf 30.053300000000000 -95.205400000000000 5489
Mon Mar 30 00:00:00 GMT 2009 dtrumbu Southern live oak Quercus virginiana End of Pollen 30.053300000000000 -95.205400000000000 5488
Wed Mar 31 00:00:00 GMT 2010 lamingtons Southern live oak Quercus virginiana First Leaf 33.991500000000000 -83.445300000000000 9539
Sat Apr 03 00:00:00 GMT 2010 lamingtons Southern live oak Quercus virginiana First Pollen 33.991500000000000 -83.445300000000000 9540
Wed Apr 07 00:00:00 GMT 2010 lamingtons Southern live oak Quercus virginiana Full Pollen 33.991500000000000 -83.445300000000000 9541
Mon Mar 22 00:00:00 GMT 2010 anonymous Southern live oak Quercus virginiana First Leaf 39.165300000000000 -86.526400000000000 9791
Mon Sep 19 00:00:00 GMT 2011 LOLHomeschool Southern live oak Quercus virginiana First Ripe Fruit 33.894300000000000 -78.426700000000000 13294
Tue Apr 03 00:00:00 GMT 2012 tuckerasso Southern live oak Quercus virginiana First Flower 37.231600000000000 -76.663600000000000 14904
Tue Apr 10 00:00:00 GMT 2012 tuckerasso Southern live oak Quercus virginiana Full Flower 37.231600000000000 -76.663600000000000 14905
Mon Jun 18 00:00:00 GMT 2012 Budburst1 Southern live oak Quercus virginiana Full Flower 26.556600000000000 -80.129600000000000 16233
Fri Sep 14 00:00:00 GMT 2012 jaronlivingston Southern live oak Quercus virginiana First Ripe Fruit 39.600000000000000 -83.050000000000000 16667
Fri Sep 14 00:00:00 GMT 2012 sterlinhaymon Southern live oak Quercus virginiana First Ripe Fruit 34.600000000000000 -83.050000000000000 16664
Fri Sep 14 00:00:00 GMT 2012 zachpcollins@hotmail.com Southern live oak Quercus virginiana First Ripe Fruit 34.620000000000000 -83.050000000000000 16656
Fri Sep 14 00:00:00 GMT 2012 5caholbrooks Southern live oak Quercus virginiana Full Fruiting 34.620000000000000 -83.050000000000000 16650
Tue Sep 18 00:00:00 GMT 2012 JennyOwens Southern live oak Quercus virginiana First Flower 34.620000000000000 -83.050000000000000 16636
Fri Sep 14 00:00:00 GMT 2012 wesley Southern live oak Quercus virginiana First Ripe Fruit 34.620000000000000 -83.050000000000000 16649
Thu Sep 13 00:00:00 GMT 2012 katelan cockman Southern live oak Quercus virginiana First Ripe Fruit 34.610000000000000 -83.050000000000000 16700
Thu Sep 13 00:00:00 GMT 2012 katelan cockman Southern live oak Quercus virginiana Full Fruiting 34.610000000000000 -83.050000000000000 16701
Mon Feb 13 00:00:00 GMT 2012 kennedy smith Southern live oak Quercus virginiana First Flower 34.620000000000000 -83.050000000000000 16692
Tue Apr 17 00:00:00 GMT 2012 kennedy smith Southern live oak Quercus virginiana Full Flower 34.620000000000000 -83.050000000000000 16693
Wed Jun 13 00:00:00 GMT 2012 kennedy smith Southern live oak Quercus virginiana First Ripe Fruit 34.620000000000000 -83.050000000000000 16694
Wed Oct 10 00:00:00 GMT 2012 kennedy smith Southern live oak Quercus virginiana Full Fruiting 34.620000000000000 -83.050000000000000 16695
Thu Jan 01 00:00:00 GMT 2009 Colton Hare Southern live oak Quercus virginiana First Flower 34.620000000000000 -83.050000000000000 16696
Tue Feb 02 00:00:00 GMT 2010 Colton Hare Southern live oak Quercus virginiana Full Flower 34.620000000000000 -83.050000000000000 16697
Thu Mar 03 00:00:00 GMT 2011 Colton Hare Southern live oak Quercus virginiana First Ripe Fruit 34.620000000000000 -83.050000000000000 16698
Wed Apr 04 00:00:00 GMT 2012 Colton Hare Southern live oak Quercus virginiana Full Fruiting 34.620000000000000 -83.050000000000000 16699
Thu Sep 13 00:00:00 GMT 2012 reeka18 Southern live oak Quercus virginiana First Flower 34.610000000000000 -83.050000000000000 16716
Thu Sep 13 00:00:00 GMT 2012 reeka18 Southern live oak Quercus virginiana Full Flower 34.610000000000000 -83.050000000000000 16717
Sat Sep 15 00:00:00 GMT 2012 reeka18 Southern live oak Quercus virginiana First Ripe Fruit 34.610000000000000 -83.050000000000000 16718
Sat Sep 15 00:00:00 GMT 2012 reeka18 Southern live oak Quercus virginiana Full Fruiting 34.610000000000000 -83.050000000000000 16719
Mon Oct 01 00:00:00 GMT 2012 cathleendn Southern live oak Quercus virginiana Full Fruiting 28.021100000000000 -81.958300000000000 17020
Tue Dec 04 00:00:00 GMT 2012 tuckerasso Southern live oak Quercus virginiana Full Fruiting 37.231600000000000 -76.663600000000000 17658
Fri Mar 29 00:00:00 GMT 2013 janspaugh Southern live oak Quercus virginiana Full Flower 27.989700000000000 -81.857200000000000 19158
Thu Feb 20 00:00:00 GMT 2014 zebvance Southern live oak Quercus virginiana First Flower 28.818400000000000 -81.679200000000000 25538
Mon Mar 03 00:00:00 GMT 2014 BBRAKER@OXY.EDU_Audubon_Center_at_Debs_Park_reporter1 Southern live oak Quercus virginiana Flowers (None) 34.098000000000000 -118.194000000000000 25930
Mon Mar 03 00:00:00 GMT 2014 BBRAKER@OXY.EDU_Audubon_Center_at_Debs_Park_reporter1 Southern live oak Quercus virginiana Fruit (None) 34.098000000000000 -118.194000000000000 25931
Tue Mar 04 00:00:00 GMT 2014 BBRAKER@OXY.EDU_Audubon_Center_at_Debs_Park_reporter1 Southern live oak Quercus virginiana Flowers (None) 34.097100000000000 -118.194000000000000 25932
Tue Mar 04 00:00:00 GMT 2014 BBRAKER@OXY.EDU_Audubon_Center_at_Debs_Park_reporter1 Southern live oak Quercus virginiana Fruit (None) 34.097100000000000 -118.194000000000000 25933
Tue Mar 04 00:00:00 GMT 2014 BBRAKER@OXY.EDU_Audubon_Center_at_Debs_Park_reporter5 Southern live oak Quercus virginiana Flowers (None) 34.099000000000000 -118.198000000000000 25968
Tue Mar 04 00:00:00 GMT 2014 BBRAKER@OXY.EDU_Audubon_Center_at_Debs_Park_reporter5 Southern live oak Quercus virginiana Fruit (None) 34.099000000000000 -118.198000000000000 25969
Tue Mar 04 00:00:00 GMT 2014 BBRAKER@OXY.EDU_Audubon_Center_at_Debs_Park_reporter5 Southern live oak Quercus virginiana Flowers (Early) 34.099000000000000 -118.198000000000000 25983
Tue Mar 04 00:00:00 GMT 2014 BBRAKER@OXY.EDU_Audubon_Center_at_Debs_Park_reporter5 Southern live oak Quercus virginiana Fruit (None) 34.099000000000000 -118.198000000000000 25984
Thu Mar 06 00:00:00 GMT 2014 BBRAKER@OXY.EDU_Audubon_Center_at_Debs_Park_reporter12 Southern live oak Quercus virginiana Flowers (None) 34.104300000000000 -118.196000000000000 26119
Thu Mar 06 00:00:00 GMT 2014 BBRAKER@OXY.EDU_Audubon_Center_at_Debs_Park_reporter12 Southern live oak Quercus virginiana Fruit (None) 34.104300000000000 -118.196000000000000 26120
Thu Mar 06 00:00:00 GMT 2014 simsangha Southern live oak Quercus virginiana Flowers (Middle) 34.098900000000000 -118.198000000000000 26090
Thu Mar 06 00:00:00 GMT 2014 simsangha Southern live oak Quercus virginiana Fruit (Late) 34.098900000000000 -118.198000000000000 26091
Thu Mar 13 00:00:00 GMT 2014 zebvance Southern live oak Quercus virginiana Full Flower 28.818400000000000 -81.679200000000000 26348
Sat Mar 15 00:00:00 GMT 2014 BBRAKER@OXY.EDU_Audubon_Center_at_Debs_Park_reporter1 Southern live oak Quercus virginiana Flowers (None) 34.462400000000000 -119.234000000000000 26862
Sat Mar 15 00:00:00 GMT 2014 BBRAKER@OXY.EDU_Audubon_Center_at_Debs_Park_reporter1 Southern live oak Quercus virginiana Fruit (None) 34.462400000000000 -119.234000000000000 26863
Sat Mar 15 00:00:00 GMT 2014 BBRAKER@OXY.EDU_Audubon_Center_at_Debs_Park_reporter1 Southern live oak Quercus virginiana Flowers (None) 34.462300000000000 -119.234000000000000 26888
Sat Mar 15 00:00:00 GMT 2014 BBRAKER@OXY.EDU_Audubon_Center_at_Debs_Park_reporter1 Southern live oak Quercus virginiana Fruit (None) 34.462300000000000 -119.234000000000000 26889
Sat Mar 15 00:00:00 GMT 2014 BBRAKER@OXY.EDU_Audubon_Center_at_Debs_Park_reporter1 Southern live oak Quercus virginiana Flowers (None) 34.461000000000000 -119.231000000000000 26904
Sat Mar 15 00:00:00 GMT 2014 BBRAKER@OXY.EDU_Audubon_Center_at_Debs_Park_reporter1 Southern live oak Quercus virginiana Fruit (None) 34.461000000000000 -119.231000000000000 26905
Sat Mar 15 00:00:00 GMT 2014 BBRAKER@OXY.EDU_Audubon_Center_at_Debs_Park_reporter1 Southern live oak Quercus virginiana Flowers (None) 34.462900000000000 -119.234000000000000 26896
Sat Mar 15 00:00:00 GMT 2014 BBRAKER@OXY.EDU_Audubon_Center_at_Debs_Park_reporter1 Southern live oak Quercus virginiana Fruit (None) 34.462900000000000 -119.234000000000000 26897
Sat Mar 15 00:00:00 GMT 2014 BBRAKER@OXY.EDU_Audubon_Center_at_Debs_Park_reporter1 Southern live oak Quercus virginiana Flowers (None) 34.463000000000000 -119.234000000000000 26898
Sat Mar 15 00:00:00 GMT 2014 BBRAKER@OXY.EDU_Audubon_Center_at_Debs_Park_reporter1 Southern live oak Quercus virginiana Fruit (None) 34.463000000000000 -119.234000000000000 26899
Sat Mar 15 00:00:00 GMT 2014 BBRAKER@OXY.EDU_Audubon_Center_at_Debs_Park_reporter1 Southern live oak Quercus virginiana Flowers (None) 34.462500000000000 -119.234000000000000 26890
Sat Mar 15 00:00:00 GMT 2014 BBRAKER@OXY.EDU_Audubon_Center_at_Debs_Park_reporter1 Southern live oak Quercus virginiana Fruit (None) 34.462500000000000 -119.234000000000000 26891
Sat Mar 15 00:00:00 GMT 2014 BBRAKER@OXY.EDU_Audubon_Center_at_Debs_Park_reporter1 Southern live oak Quercus virginiana Flowers (None) 34.462700000000000 -119.234000000000000 26892
Sat Mar 15 00:00:00 GMT 2014 BBRAKER@OXY.EDU_Audubon_Center_at_Debs_Park_reporter1 Southern live oak Quercus virginiana Fruit (None) 34.462700000000000 -119.234000000000000 26893
Sat Mar 15 00:00:00 GMT 2014 BBRAKER@OXY.EDU_Audubon_Center_at_Debs_Park_reporter1 Southern live oak Quercus virginiana Flowers (None) 34.463200000000000 -119.234000000000000 26900
Sat Mar 15 00:00:00 GMT 2014 BBRAKER@OXY.EDU_Audubon_Center_at_Debs_Park_reporter1 Southern live oak Quercus virginiana Fruit (None) 34.463200000000000 -119.234000000000000 26901
Sat Mar 15 00:00:00 GMT 2014 BBRAKER@OXY.EDU_Audubon_Center_at_Debs_Park_reporter1 Southern live oak Quercus virginiana Flowers (None) 34.462800000000000 -119.234000000000000 26894
Sat Mar 15 00:00:00 GMT 2014 BBRAKER@OXY.EDU_Audubon_Center_at_Debs_Park_reporter1 Southern live oak Quercus virginiana Fruit (None) 34.462800000000000 -119.234000000000000 26895
Sat Mar 15 00:00:00 GMT 2014 BBRAKER@OXY.EDU_Audubon_Center_at_Debs_Park_reporter1 Southern live oak Quercus virginiana Flowers (None) 34.463400000000000 -119.234000000000000 26902
Sat Mar 15 00:00:00 GMT 2014 BBRAKER@OXY.EDU_Audubon_Center_at_Debs_Park_reporter1 Southern live oak Quercus virginiana Fruit (None) 34.463400000000000 -119.234000000000000 26903
Thu Mar 06 00:00:00 GMT 2014 BBRAKER@OXY.EDU_Audubon_Center_at_Debs_Park_reporter11 Southern live oak Quercus virginiana Flowers (Middle) 34.099500000000000 -118.198000000000000 27239
Thu Mar 06 00:00:00 GMT 2014 BBRAKER@OXY.EDU_Audubon_Center_at_Debs_Park_reporter11 Southern live oak Quercus virginiana Fruit (None) 34.099500000000000 -118.198000000000000 27240
Thu Mar 20 00:00:00 GMT 2014 BBRAKER@OXY.EDU_Audubon_Center_at_Debs_Park_reporter11 Southern live oak Quercus virginiana Flowers (None) 34.126900000000000 -118.212000000000000 27251
Thu Mar 20 00:00:00 GMT 2014 BBRAKER@OXY.EDU_Audubon_Center_at_Debs_Park_reporter11 Southern live oak Quercus virginiana Fruit (None) 34.126900000000000 -118.212000000000000 27252
Thu Mar 20 00:00:00 GMT 2014 BBRAKER@OXY.EDU_Audubon_Center_at_Debs_Park_reporter11 Southern live oak Quercus virginiana Flowers (None) 34.126500000000000 -118.212000000000000 27257
Thu Mar 20 00:00:00 GMT 2014 BBRAKER@OXY.EDU_Audubon_Center_at_Debs_Park_reporter11 Southern live oak Quercus virginiana Fruit (None) 34.126500000000000 -118.212000000000000 27258
Thu Mar 20 00:00:00 GMT 2014 BBRAKER@OXY.EDU_Audubon_Center_at_Debs_Park_reporter11 Southern live oak Quercus virginiana Flowers (None) 34.126900000000000 -118.212000000000000 27253
Thu Mar 20 00:00:00 GMT 2014 BBRAKER@OXY.EDU_Audubon_Center_at_Debs_Park_reporter11 Southern live oak Quercus virginiana Fruit (None) 34.126900000000000 -118.212000000000000 27254
Thu Mar 20 00:00:00 GMT 2014 BBRAKER@OXY.EDU_Audubon_Center_at_Debs_Park_reporter11 Southern live oak Quercus virginiana Flowers (Middle) 34.126900000000000 -118.212000000000000 27245
Thu Mar 20 00:00:00 GMT 2014 BBRAKER@OXY.EDU_Audubon_Center_at_Debs_Park_reporter11 Southern live oak Quercus virginiana Fruit (None) 34.126900000000000 -118.212000000000000 27246
Thu Mar 20 00:00:00 GMT 2014 BBRAKER@OXY.EDU_Audubon_Center_at_Debs_Park_reporter11 Southern live oak Quercus virginiana Flowers (Middle) 34.127000000000000 -118.212000000000000 27243
Thu Mar 20 00:00:00 GMT 2014 BBRAKER@OXY.EDU_Audubon_Center_at_Debs_Park_reporter11 Southern live oak Quercus virginiana Fruit (None) 34.127000000000000 -118.212000000000000 27244
Wed Apr 09 00:00:00 GMT 2014 Bngo_The_Francis_Parker_School_reporter11 Southern live oak Quercus virginiana Flowers (None) 32.771780000000000 -117.177330000000000 28432
Wed Apr 09 00:00:00 GMT 2014 Bngo_The_Francis_Parker_School_reporter11 Southern live oak Quercus virginiana Fruit (None) 32.771780000000000 -117.177330000000000 28433
Thu Apr 10 00:00:00 GMT 2014 Bngo_The_Francis_Parker_School_reporter12 Southern live oak Quercus virginiana Flowers (Early) 32.771780000000000 -117.177330000000000 28734
Thu Apr 10 00:00:00 GMT 2014 Bngo_The_Francis_Parker_School_reporter12 Southern live oak Quercus virginiana Fruit (None) 32.771780000000000 -117.177330000000000 28735
Thu Apr 10 00:00:00 GMT 2014 Bngo_The_Francis_Parker_School_reporter4 Southern live oak Quercus virginiana Flowers (Early) 40.000000000000000 -100.000000000000000 28737
Thu Apr 10 00:00:00 GMT 2014 Bngo_The_Francis_Parker_School_reporter4 Southern live oak Quercus virginiana Fruit (None) 40.000000000000000 -100.000000000000000 28738
Fri Apr 11 00:00:00 GMT 2014 Bngo_The_Francis_Parker_School_reporter19 Southern live oak Quercus virginiana Flowers (None) 32.771750000000000 -117.176610000000000 28832
Fri Apr 11 00:00:00 GMT 2014 Bngo_The_Francis_Parker_School_reporter19 Southern live oak Quercus virginiana Fruit (None) 32.771750000000000 -117.176610000000000 28833
Mon Apr 21 00:00:00 GMT 2014 tuckerasso Southern live oak Quercus virginiana First Flower 37.231600000000000 -76.663600000000000 32896
Fri May 02 00:00:00 GMT 2014 tuckerasso Southern live oak Quercus virginiana Full Flower 37.231600000000000 -76.663600000000000 32897
Fri Oct 17 00:00:00 GMT 2014 firetooth Southern live oak Quercus virginiana Flowers (None) 45.326580000000000 -122.644300000000000 38956
Fri Oct 17 00:00:00 GMT 2014 firetooth Southern live oak Quercus virginiana Fruit (None) 45.326580000000000 -122.644300000000000 38957
Thu Feb 26 00:00:00 GMT 2015 dpalow Southern live oak Quercus virginiana Flowers (None) 25.726610000000000 -80.289400000000000 44375
Thu Feb 26 00:00:00 GMT 2015 dpalow Southern live oak Quercus virginiana Fruit (None) 25.726610000000000 -80.289400000000000 44376
Fri Mar 06 00:00:00 GMT 2015 zhaonicholas Southern live oak Quercus virginiana First Flower 37.456089000000000 -122.147863000000000 44641
Tue Mar 03 00:00:00 GMT 2015 zhaonicholas Southern live oak Quercus virginiana First Ripe Fruit 37.456089000000000 -122.147863000000000 44642
Sat Mar 07 00:00:00 GMT 2015 zhaonicholas Southern live oak Quercus virginiana Full Fruiting 37.456089000000000 -122.147863000000000 44643
Sat Mar 14 00:00:00 GMT 2015 zhaonicholas Southern live oak Quercus virginiana Full Flower 37.456089000000000 -122.147863000000000 44904
Mon Mar 30 00:00:00 GMT 2015 ms-oppel-sutter Southern live oak Quercus virginiana Flowers (None) 32.779710000000000 -96.804960000000000 45491
Mon Mar 30 00:00:00 GMT 2015 ms-oppel-sutter Southern live oak Quercus virginiana Fruit (None) 32.779710000000000 -96.804960000000000 45492
Sat Mar 21 00:00:00 GMT 2015 alicia Southern live oak Quercus virginiana Full Flower 30.620890000000000 -87.158520000000000 45524
Mon Dec 14 00:00:00 GMT 2015 FGCU-treecampususa Southern live oak Quercus virginiana Flowers (None) 26.278940000000000 -81.464190000000000 60853
Mon Dec 14 00:00:00 GMT 2015 FGCU-treecampususa Southern live oak Quercus virginiana Fruit (Early) 26.278940000000000 -81.464190000000000 60854
Wed Sep 23 00:00:00 GMT 2015 FGCU-treecampususa Southern live oak Quercus virginiana Flowers (None) 26.276820000000000 -81.467840000000000 60865
Wed Sep 23 00:00:00 GMT 2015 FGCU-treecampususa Southern live oak Quercus virginiana Fruit (Early) 26.276820000000000 -81.467840000000000 60866
Mon Dec 14 00:00:00 GMT 2015 FGCU-treecampususa Southern live oak Quercus virginiana Flowers (None) 26.277420000000000 -81.465650000000000 60867
Mon Dec 14 00:00:00 GMT 2015 FGCU-treecampususa Southern live oak Quercus virginiana Fruit (Early) 26.277420000000000 -81.465650000000000 60868
Tue Nov 03 00:00:00 GMT 2015 FGCU-treecampususa Southern live oak Quercus virginiana Flowers (None) 26.278410000000000 -81.463320000000000 60893
Tue Nov 03 00:00:00 GMT 2015 FGCU-treecampususa Southern live oak Quercus virginiana Fruit (Early) 26.278410000000000 -81.463320000000000 60894
Mon Dec 14 00:00:00 GMT 2015 FGCU-treecampususa Southern live oak Quercus virginiana Flowers (None) 26.278440000000000 -81.463290000000000 60895
Mon Dec 14 00:00:00 GMT 2015 FGCU-treecampususa Southern live oak Quercus virginiana Fruit (Early) 26.278440000000000 -81.463290000000000 60896
Tue Nov 03 00:00:00 GMT 2015 FGCU-treecampususa Southern live oak Quercus virginiana Flowers (None) 26.278440000000000 -81.463290000000000 60897
Tue Nov 03 00:00:00 GMT 2015 FGCU-treecampususa Southern live oak Quercus virginiana Fruit (Early) 26.278440000000000 -81.463290000000000 60898
Tue Nov 03 00:00:00 GMT 2015 FGCU-treecampususa Southern live oak Quercus virginiana Flowers (None) 26.278540000000000 -81.463210000000000 60899
Tue Nov 03 00:00:00 GMT 2015 FGCU-treecampususa Southern live oak Quercus virginiana Fruit (Early) 26.278540000000000 -81.463210000000000 60900
Tue Nov 03 00:00:00 GMT 2015 FGCU-treecampususa Southern live oak Quercus virginiana Flowers (None) 26.278560000000000 -81.463220000000000 60901
Tue Nov 03 00:00:00 GMT 2015 FGCU-treecampususa Southern live oak Quercus virginiana Fruit (Early) 26.278560000000000 -81.463220000000000 60902
Tue Nov 03 00:00:00 GMT 2015 FGCU-treecampususa Southern live oak Quercus virginiana Flowers (None) 26.278630000000000 -81.463200000000000 60911
Tue Nov 03 00:00:00 GMT 2015 FGCU-treecampususa Southern live oak Quercus virginiana Fruit (Early) 26.278630000000000 -81.463200000000000 60912
Mon Dec 14 00:00:00 GMT 2015 FGCU-treecampususa Southern live oak Quercus virginiana Flowers (None) 26.278780000000000 -81.463210000000000 60913
Mon Dec 14 00:00:00 GMT 2015 FGCU-treecampususa Southern live oak Quercus virginiana Fruit (Early) 26.278780000000000 -81.463210000000000 60914
Fri Nov 06 00:00:00 GMT 2015 FGCU-treecampususa Southern live oak Quercus virginiana Flowers (None) 26.276520000000000 -81.464440000000000 60918
Fri Nov 06 00:00:00 GMT 2015 FGCU-treecampususa Southern live oak Quercus virginiana Fruit (Early) 26.276520000000000 -81.464440000000000 60919
Fri Nov 06 00:00:00 GMT 2015 FGCU-treecampususa Southern live oak Quercus virginiana Flowers (None) 26.276520000000000 -81.464470000000000 60920
Fri Nov 06 00:00:00 GMT 2015 FGCU-treecampususa Southern live oak Quercus virginiana Fruit (Early) 26.276520000000000 -81.464470000000000 60921
Fri Nov 06 00:00:00 GMT 2015 FGCU-treecampususa Southern live oak Quercus virginiana Flowers (None) 26.276480000000000 -81.464470000000000 60922
Fri Nov 06 00:00:00 GMT 2015 FGCU-treecampususa Southern live oak Quercus virginiana Fruit (Early) 26.276480000000000 -81.464470000000000 60923
Fri Nov 06 00:00:00 GMT 2015 FGCU-treecampususa Southern live oak Quercus virginiana Flowers (None) 26.276530000000000 -81.464510000000000 60924
Fri Nov 06 00:00:00 GMT 2015 FGCU-treecampususa Southern live oak Quercus virginiana Fruit (Early) 26.276530000000000 -81.464510000000000 60925
Mon Dec 14 00:00:00 GMT 2015 FGCU-treecampususa Southern live oak Quercus virginiana Flowers (None) 26.276510000000000 -81.464510000000000 60926
Mon Dec 14 00:00:00 GMT 2015 FGCU-treecampususa Southern live oak Quercus virginiana Fruit (Early) 26.276510000000000 -81.464510000000000 60927
Fri Nov 13 00:00:00 GMT 2015 FGCU-treecampususa Southern live oak Quercus virginiana Flowers (None) 26.276970000000000 -81.463500000000000 61006
Fri Nov 13 00:00:00 GMT 2015 FGCU-treecampususa Southern live oak Quercus virginiana Fruit (Early) 26.276970000000000 -81.463500000000000 61007
Fri Nov 13 00:00:00 GMT 2015 FGCU-treecampususa Southern live oak Quercus virginiana Flowers (None) 26.276930000000000 -81.463610000000000 61008
Fri Nov 13 00:00:00 GMT 2015 FGCU-treecampususa Southern live oak Quercus virginiana Fruit (Early) 26.276930000000000 -81.463610000000000 61009
Fri Nov 13 00:00:00 GMT 2015 FGCU-treecampususa Southern live oak Quercus virginiana Flowers (None) 26.276950000000000 -81.463590000000000 61010
Fri Nov 13 00:00:00 GMT 2015 FGCU-treecampususa Southern live oak Quercus virginiana Fruit (Early) 26.276950000000000 -81.463590000000000 61011
Fri Nov 13 00:00:00 GMT 2015 FGCU-treecampususa Southern live oak Quercus virginiana Flowers (None) 26.276990000000000 -81.463600000000000 61012
Fri Nov 13 00:00:00 GMT 2015 FGCU-treecampususa Southern live oak Quercus virginiana Fruit (Early) 26.276990000000000 -81.463600000000000 61013
Fri Nov 13 00:00:00 GMT 2015 FGCU-treecampususa Southern live oak Quercus virginiana Flowers (None) 26.277010000000000 -81.463570000000000 61014
Fri Nov 13 00:00:00 GMT 2015 FGCU-treecampususa Southern live oak Quercus virginiana Fruit (Early) 26.277010000000000 -81.463570000000000 61015
Fri Nov 13 00:00:00 GMT 2015 FGCU-treecampususa Southern live oak Quercus virginiana Flowers (None) 26.276670000000000 -81.463330000000000 61058
Fri Nov 13 00:00:00 GMT 2015 FGCU-treecampususa Southern live oak Quercus virginiana Fruit (Early) 26.276670000000000 -81.463330000000000 61059
Fri Nov 13 00:00:00 GMT 2015 FGCU-treecampususa Southern live oak Quercus virginiana Flowers (None) 26.276660000000000 -81.463290000000000 61060
Fri Nov 13 00:00:00 GMT 2015 FGCU-treecampususa Southern live oak Quercus virginiana Fruit (Early) 26.276660000000000 -81.463290000000000 61061
Fri Nov 13 00:00:00 GMT 2015 FGCU-treecampususa Southern live oak Quercus virginiana Flowers (None) 26.276630000000000 -81.463240000000000 61062
Fri Nov 13 00:00:00 GMT 2015 FGCU-treecampususa Southern live oak Quercus virginiana Fruit (Early) 26.276630000000000 -81.463240000000000 61063
Fri Nov 13 00:00:00 GMT 2015 FGCU-treecampususa Southern live oak Quercus virginiana Flowers (None) 26.276600000000000 -81.463190000000000 61064
Fri Nov 13 00:00:00 GMT 2015 FGCU-treecampususa Southern live oak Quercus virginiana Fruit (Early) 26.276600000000000 -81.463190000000000 61065
Fri Nov 13 00:00:00 GMT 2015 FGCU-treecampususa Southern live oak Quercus virginiana Flowers (None) 26.278120000000000 -81.463810000000000 61066
Fri Nov 13 00:00:00 GMT 2015 FGCU-treecampususa Southern live oak Quercus virginiana Fruit (Early) 26.278120000000000 -81.463810000000000 61067
Fri Nov 13 00:00:00 GMT 2015 FGCU-treecampususa Southern live oak Quercus virginiana Flowers (None) 26.278120000000000 -81.463810000000000 61068
Fri Nov 13 00:00:00 GMT 2015 FGCU-treecampususa Southern live oak Quercus virginiana Fruit (Early) 26.278120000000000 -81.463810000000000 61069
Fri Nov 20 00:00:00 GMT 2015 FGCU-treecampususa Southern live oak Quercus virginiana Flowers (None) 26.276950000000000 -81.465420000000000 61083
Fri Nov 20 00:00:00 GMT 2015 FGCU-treecampususa Southern live oak Quercus virginiana Fruit (Early) 26.276950000000000 -81.465420000000000 61084
Mon Dec 14 00:00:00 GMT 2015 FGCU-treecampususa Southern live oak Quercus virginiana Flowers (None) 26.276930000000000 -81.465440000000000 61085
Mon Dec 14 00:00:00 GMT 2015 FGCU-treecampususa Southern live oak Quercus virginiana Fruit (Early) 26.276930000000000 -81.465440000000000 61086
Fri Nov 20 00:00:00 GMT 2015 FGCU-treecampususa Southern live oak Quercus virginiana Flowers (None) 26.276680000000000 -81.465400000000000 61117
Fri Nov 20 00:00:00 GMT 2015 FGCU-treecampususa Southern live oak Quercus virginiana Fruit (Early) 26.276680000000000 -81.465400000000000 61118
Fri Nov 20 00:00:00 GMT 2015 FGCU-treecampususa Southern live oak Quercus virginiana Flowers (None) 26.276670000000000 -81.465360000000000 61119
Fri Nov 20 00:00:00 GMT 2015 FGCU-treecampususa Southern live oak Quercus virginiana Fruit (Early) 26.276670000000000 -81.465360000000000 61120
Fri Nov 20 00:00:00 GMT 2015 FGCU-treecampususa Southern live oak Quercus virginiana Flowers (None) 26.276620000000000 -81.465360000000000 61121
Fri Nov 20 00:00:00 GMT 2015 FGCU-treecampususa Southern live oak Quercus virginiana Fruit (Early) 26.276620000000000 -81.465360000000000 61122

*All downloadable materials require the free Adobe Reader.